sensor_id;sensor_type;location;lat;lon;timestamp;temperature;humidity
45785;DHT22;31489;51.404;5.474;2022-12-18T00:01:42;1.10;61.40
45785;DHT22;31489;51.404;5.474;2022-12-18T00:04:22;1.10;61.30
45785;DHT22;31489;51.404;5.474;2022-12-18T00:06:48;1.10;61.10
45785;DHT22;31489;51.404;5.474;2022-12-18T00:09:14;1.10;61.20
45785;DHT22;31489;51.404;5.474;2022-12-18T00:11:41;1.00;61.20
45785;DHT22;31489;51.404;5.474;2022-12-18T00:14:06;1.00;61.20
45785;DHT22;31489;51.404;5.474;2022-12-18T00:16:32;0.90;61.10
45785;DHT22;31489;51.404;5.474;2022-12-18T00:19:01;0.90;61.10
45785;DHT22;31489;51.404;5.474;2022-12-18T00:21:28;0.90;61.20
45785;DHT22;31489;51.404;5.474;2022-12-18T00:23:53;0.90;61.20
45785;DHT22;31489;51.404;5.474;2022-12-18T00:26:22;0.90;61.20
45785;DHT22;31489;51.404;5.474;2022-12-18T00:28:49;0.90;61.20
45785;DHT22;31489;51.404;5.474;2022-12-18T00:31:21;0.80;61.10
45785;DHT22;31489;51.404;5.474;2022-12-18T00:33:47;0.80;60.90
45785;DHT22;31489;51.404;5.474;2022-12-18T00:36:21;0.80;60.90
45785;DHT22;31489;51.404;5.474;2022-12-18T00:38:48;0.80;60.90
45785;DHT22;31489;51.404;5.474;2022-12-18T00:41:15;0.80;61.00
45785;DHT22;31489;51.404;5.474;2022-12-18T00:44:02;0.80;60.90
45785;DHT22;31489;51.404;5.474;2022-12-18T00:46:28;0.70;60.80
45785;DHT22;31489;51.404;5.474;2022-12-18T00:48:54;0.70;60.70
45785;DHT22;31489;51.404;5.474;2022-12-18T00:51:20;0.70;60.70
45785;DHT22;31489;51.404;5.474;2022-12-18T00:53:45;0.70;60.70
45785;DHT22;31489;51.404;5.474;2022-12-18T00:56:11;0.60;60.70
45785;DHT22;31489;51.404;5.474;2022-12-18T00:58:37;0.60;60.60
45785;DHT22;31489;51.404;5.474;2022-12-18T01:01:06;0.60;60.60
45785;DHT22;31489;51.404;5.474;2022-12-18T01:03:32;0.50;60.50
45785;DHT22;31489;51.404;5.474;2022-12-18T01:05:58;0.50;60.50
45785;DHT22;31489;51.404;5.474;2022-12-18T01:08:23;0.50;60.60
45785;DHT22;31489;51.404;5.474;2022-12-18T01:10:50;0.50;60.60
45785;DHT22;31489;51.404;5.474;2022-12-18T01:13:16;0.50;60.60
45785;DHT22;31489;51.404;5.474;2022-12-18T01:15:51;0.40;60.50
45785;DHT22;31489;51.404;5.474;2022-12-18T01:18:17;0.40;60.50
45785;DHT22;31489;51.404;5.474;2022-12-18T01:20:42;0.40;60.60
45785;DHT22;31489;51.404;5.474;2022-12-18T01:23:08;0.40;60.60
45785;DHT22;31489;51.404;5.474;2022-12-18T01:25:35;0.40;60.50
45785;DHT22;31489;51.404;5.474;2022-12-18T01:28:02;0.40;60.40
45785;DHT22;31489;51.404;5.474;2022-12-18T01:30:27;0.40;60.30
45785;DHT22;31489;51.404;5.474;2022-12-18T01:32:53;0.30;60.20
45785;DHT22;31489;51.404;5.474;2022-12-18T01:35:19;0.30;60.20
45785;DHT22;31489;51.404;5.474;2022-12-18T01:37:45;0.30;60.20
45785;DHT22;31489;51.404;5.474;2022-12-18T01:40:11;0.20;60.10
45785;DHT22;31489;51.404;5.474;2022-12-18T01:42:37;0.20;60.10
45785;DHT22;31489;51.404;5.474;2022-12-18T01:52:35;0.10;60.00
45785;DHT22;31489;51.404;5.474;2022-12-18T01:55:03;0.10;60.00
45785;DHT22;31489;51.404;5.474;2022-12-18T01:57:29;0.10;60.00
45785;DHT22;31489;51.404;5.474;2022-12-18T01:59:59;0.00;60.00
45785;DHT22;31489;51.404;5.474;2022-12-18T02:02:28;0.00;59.90
45785;DHT22;31489;51.404;5.474;2022-12-18T02:04:54;0.00;60.00
45785;DHT22;31489;51.404;5.474;2022-12-18T02:07:47;0.00;60.00
45785;DHT22;31489;51.404;5.474;2022-12-18T02:13:07;0.00;60.00
45785;DHT22;31489;51.404;5.474;2022-12-18T02:15:41;0.00;59.90
45785;DHT22;31489;51.404;5.474;2022-12-18T02:18:32;-0.10;59.90
45785;DHT22;31489;51.404;5.474;2022-12-18T02:21:26;0.00;59.90
45785;DHT22;31489;51.404;5.474;2022-12-18T02:23:56;-0.10;59.80
45785;DHT22;31489;51.404;5.474;2022-12-18T02:28:58;-0.10;59.90
45785;DHT22;31489;51.404;5.474;2022-12-18T02:31:28;-0.10;59.90
45785;DHT22;31489;51.404;5.474;2022-12-18T02:33:56;-0.20;59.80
45785;DHT22;31489;51.404;5.474;2022-12-18T02:36:24;-0.20;59.80
45785;DHT22;31489;51.404;5.474;2022-12-18T02:38:52;-0.20;59.90
45785;DHT22;31489;51.404;5.474;2022-12-18T02:41:19;-0.20;59.90
45785;DHT22;31489;51.404;5.474;2022-12-18T02:43:49;-0.20;59.80
45785;DHT22;31489;51.404;5.474;2022-12-18T02:46:36;-0.30;59.60
45785;DHT22;31489;51.404;5.474;2022-12-18T02:51:55;-0.30;59.60
45785;DHT22;31489;51.404;5.474;2022-12-18T02:54:38;-0.30;60.30
45785;DHT22;31489;51.404;5.474;2022-12-18T03:00:00;-0.30;59.60
45785;DHT22;31489;51.404;5.474;2022-12-18T03:02:51;-0.40;59.60
45785;DHT22;31489;51.404;5.474;2022-12-18T03:05:32;-0.40;60.10
45785;DHT22;31489;51.404;5.474;2022-12-18T03:08:10;-0.40;59.60
45785;DHT22;31489;51.404;5.474;2022-12-18T03:10:51;-0.40;59.60
45785;DHT22;31489;51.404;5.474;2022-12-18T03:13:27;-0.40;59.60
45785;DHT22;31489;51.404;5.474;2022-12-18T03:15:55;-0.40;59.70
45785;DHT22;31489;51.404;5.474;2022-12-18T03:18:33;-0.40;59.70
45785;DHT22;31489;51.404;5.474;2022-12-18T03:21:02;-0.40;59.70
45785;DHT22;31489;51.404;5.474;2022-12-18T03:23:35;-0.40;59.80
45785;DHT22;31489;51.404;5.474;2022-12-18T03:26:06;-0.40;59.70
45785;DHT22;31489;51.404;5.474;2022-12-18T03:28:37;-0.40;59.80
45785;DHT22;31489;51.404;5.474;2022-12-18T03:31:05;-0.50;59.70
45785;DHT22;31489;51.404;5.474;2022-12-18T03:33:38;-0.50;59.70
45785;DHT22;31489;51.404;5.474;2022-12-18T03:36:06;-0.50;59.60
45785;DHT22;31489;51.404;5.474;2022-12-18T03:38:32;-0.50;59.60
45785;DHT22;31489;51.404;5.474;2022-12-18T03:41:33;-0.50;59.60
45785;DHT22;31489;51.404;5.474;2022-12-18T03:44:30;-0.50;59.60
45785;DHT22;31489;51.404;5.474;2022-12-18T03:47:31;-0.50;59.60
45785;DHT22;31489;51.404;5.474;2022-12-18T03:52:42;-0.50;59.70
45785;DHT22;31489;51.404;5.474;2022-12-18T03:55:11;-0.50;59.70
45785;DHT22;31489;51.404;5.474;2022-12-18T03:57:37;-0.50;59.70
45785;DHT22;31489;51.404;5.474;2022-12-18T04:00:11;-0.50;59.70
45785;DHT22;31489;51.404;5.474;2022-12-18T04:02:39;-0.50;59.70
45785;DHT22;31489;51.404;5.474;2022-12-18T04:05:07;-0.60;59.70
45785;DHT22;31489;51.404;5.474;2022-12-18T04:07:34;-0.50;59.70
45785;DHT22;31489;51.404;5.474;2022-12-18T04:10:02;-0.60;59.70
45785;DHT22;31489;51.404;5.474;2022-12-18T04:12:29;-0.60;59.70
45785;DHT22;31489;51.404;5.474;2022-12-18T04:14:55;-0.60;59.80
45785;DHT22;31489;51.404;5.474;2022-12-18T04:17:21;-0.60;59.70
45785;DHT22;31489;51.404;5.474;2022-12-18T04:19:46;-0.50;59.80
45785;DHT22;31489;51.404;5.474;2022-12-18T04:22:12;-0.60;59.70
45785;DHT22;31489;51.404;5.474;2022-12-18T04:24:38;-0.60;59.70
45785;DHT22;31489;51.404;5.474;2022-12-18T04:27:04;-0.50;59.70
45785;DHT22;31489;51.404;5.474;2022-12-18T04:29:29;-0.60;59.70
45785;DHT22;31489;51.404;5.474;2022-12-18T04:31:55;-0.60;59.70
45785;DHT22;31489;51.404;5.474;2022-12-18T04:34:21;-0.60;59.70
45785;DHT22;31489;51.404;5.474;2022-12-18T04:36:46;-0.60;59.70
45785;DHT22;31489;51.404;5.474;2022-12-18T04:39:12;-0.60;59.70
45785;DHT22;31489;51.404;5.474;2022-12-18T04:41:38;-0.60;59.70
45785;DHT22;31489;51.404;5.474;2022-12-18T04:44:04;-0.60;59.70
45785;DHT22;31489;51.404;5.474;2022-12-18T04:46:29;-0.60;59.70
45785;DHT22;31489;51.404;5.474;2022-12-18T04:48:55;-0.60;59.80
45785;DHT22;31489;51.404;5.474;2022-12-18T04:51:21;-0.60;59.80
45785;DHT22;31489;51.404;5.474;2022-12-18T04:53:47;-0.60;59.70
45785;DHT22;31489;51.404;5.474;2022-12-18T04:56:15;-0.60;59.60
45785;DHT22;31489;51.404;5.474;2022-12-18T04:58:41;-0.60;59.50
45785;DHT22;31489;51.404;5.474;2022-12-18T05:01:08;-0.60;59.50
45785;DHT22;31489;51.404;5.474;2022-12-18T05:03:34;-0.60;59.40
45785;DHT22;31489;51.404;5.474;2022-12-18T05:06:00;-0.60;59.40
45785;DHT22;31489;51.404;5.474;2022-12-18T05:08:26;-0.60;59.40
45785;DHT22;31489;51.404;5.474;2022-12-18T05:11:18;-0.60;59.50
45785;DHT22;31489;51.404;5.474;2022-12-18T05:13:44;-0.60;59.50
45785;DHT22;31489;51.404;5.474;2022-12-18T05:16:10;-0.70;59.50
45785;DHT22;31489;51.404;5.474;2022-12-18T05:18:36;-0.70;59.50
45785;DHT22;31489;51.404;5.474;2022-12-18T05:21:03;-0.70;59.50
45785;DHT22;31489;51.404;5.474;2022-12-18T05:23:29;-0.60;59.50
45785;DHT22;31489;51.404;5.474;2022-12-18T05:26:00;-0.60;59.40
45785;DHT22;31489;51.404;5.474;2022-12-18T05:28:28;-0.60;59.40
45785;DHT22;31489;51.404;5.474;2022-12-18T05:30:56;-0.70;59.40
45785;DHT22;31489;51.404;5.474;2022-12-18T05:33:24;-0.70;59.50
45785;DHT22;31489;51.404;5.474;2022-12-18T05:35:55;-0.70;59.60
45785;DHT22;31489;51.404;5.474;2022-12-18T05:38:22;-0.70;59.50
45785;DHT22;31489;51.404;5.474;2022-12-18T05:40:52;-0.70;59.50
45785;DHT22;31489;51.404;5.474;2022-12-18T05:43:18;-0.70;59.50
45785;DHT22;31489;51.404;5.474;2022-12-18T05:45:44;-0.70;59.60
45785;DHT22;31489;51.404;5.474;2022-12-18T05:48:10;-0.70;59.60
45785;DHT22;31489;51.404;5.474;2022-12-18T05:50:36;-0.70;59.60
45785;DHT22;31489;51.404;5.474;2022-12-18T05:53:03;-0.70;59.60
45785;DHT22;31489;51.404;5.474;2022-12-18T05:55:32;-0.70;59.60
45785;DHT22;31489;51.404;5.474;2022-12-18T05:57:58;-0.70;59.60
45785;DHT22;31489;51.404;5.474;2022-12-18T06:00:24;-0.70;59.60
45785;DHT22;31489;51.404;5.474;2022-12-18T06:02:49;-0.70;59.60
45785;DHT22;31489;51.404;5.474;2022-12-18T06:05:15;-0.70;59.60
45785;DHT22;31489;51.404;5.474;2022-12-18T06:07:41;-0.70;59.60
45785;DHT22;31489;51.404;5.474;2022-12-18T06:10:07;-0.70;59.60
45785;DHT22;31489;51.404;5.474;2022-12-18T06:12:32;-0.70;59.70
45785;DHT22;31489;51.404;5.474;2022-12-18T06:15:01;-0.70;59.70
45785;DHT22;31489;51.404;5.474;2022-12-18T06:17:33;-0.70;60.20
45785;DHT22;31489;51.404;5.474;2022-12-18T06:19:59;-0.70;59.80
45785;DHT22;31489;51.404;5.474;2022-12-18T06:22:25;-0.70;59.60
45785;DHT22;31489;51.404;5.474;2022-12-18T06:24:51;-0.80;59.50
45785;DHT22;31489;51.404;5.474;2022-12-18T06:27:17;-0.70;59.60
45785;DHT22;31489;51.404;5.474;2022-12-18T06:29:42;-0.80;59.50
45785;DHT22;31489;51.404;5.474;2022-12-18T06:32:08;-0.70;59.40
45785;DHT22;31489;51.404;5.474;2022-12-18T06:34:34;-0.70;59.40
45785;DHT22;31489;51.404;5.474;2022-12-18T06:37:02;-0.80;59.40
45785;DHT22;31489;51.404;5.474;2022-12-18T06:39:27;-0.80;59.40
45785;DHT22;31489;51.404;5.474;2022-12-18T06:41:53;-0.80;59.40
45785;DHT22;31489;51.404;5.474;2022-12-18T06:44:19;-0.80;59.50
45785;DHT22;31489;51.404;5.474;2022-12-18T06:46:45;-0.80;59.50
45785;DHT22;31489;51.404;5.474;2022-12-18T06:49:10;-0.80;59.50
45785;DHT22;31489;51.404;5.474;2022-12-18T06:51:36;-0.80;59.50
45785;DHT22;31489;51.404;5.474;2022-12-18T06:54:02;-0.80;59.50
45785;DHT22;31489;51.404;5.474;2022-12-18T06:56:28;-0.80;59.60
45785;DHT22;31489;51.404;5.474;2022-12-18T06:58:54;-0.80;59.60
45785;DHT22;31489;51.404;5.474;2022-12-18T07:01:20;-0.80;59.60
45785;DHT22;31489;51.404;5.474;2022-12-18T07:03:46;-0.80;59.60
45785;DHT22;31489;51.404;5.474;2022-12-18T07:06:18;-0.80;60.20
45785;DHT22;31489;51.404;5.474;2022-12-18T07:08:45;-0.80;59.60
45785;DHT22;31489;51.404;5.474;2022-12-18T07:11:11;-0.80;59.70
45785;DHT22;31489;51.404;5.474;2022-12-18T07:13:37;-0.80;59.70
45785;DHT22;31489;51.404;5.474;2022-12-18T07:16:17;-0.90;59.60
45785;DHT22;31489;51.404;5.474;2022-12-18T07:18:43;-0.90;59.70
45785;DHT22;31489;51.404;5.474;2022-12-18T07:21:12;-0.90;59.80
45785;DHT22;31489;51.404;5.474;2022-12-18T07:23:38;-0.90;59.80
45785;DHT22;31489;51.404;5.474;2022-12-18T07:26:09;-0.90;59.90
45785;DHT22;31489;51.404;5.474;2022-12-18T07:28:36;-0.90;59.90
45785;DHT22;31489;51.404;5.474;2022-12-18T07:31:07;-0.90;59.90
45785;DHT22;31489;51.404;5.474;2022-12-18T07:33:33;-0.90;59.90
45785;DHT22;31489;51.404;5.474;2022-12-18T07:36:04;-0.90;59.90
45785;DHT22;31489;51.404;5.474;2022-12-18T07:38:30;-0.90;60.00
45785;DHT22;31489;51.404;5.474;2022-12-18T07:41:05;-0.90;60.00
45785;DHT22;31489;51.404;5.474;2022-12-18T07:43:30;-0.90;60.10
45785;DHT22;31489;51.404;5.474;2022-12-18T07:45:56;-0.90;60.20
45785;DHT22;31489;51.404;5.474;2022-12-18T07:48:22;-0.90;60.20
45785;DHT22;31489;51.404;5.474;2022-12-18T07:50:47;-0.90;60.30
45785;DHT22;31489;51.404;5.474;2022-12-18T07:53:13;-0.80;60.40
45785;DHT22;31489;51.404;5.474;2022-12-18T07:55:40;-0.90;60.50
45785;DHT22;31489;51.404;5.474;2022-12-18T07:58:07;-0.80;60.60
45785;DHT22;31489;51.404;5.474;2022-12-18T08:00:33;-0.80;60.60
45785;DHT22;31489;51.404;5.474;2022-12-18T08:02:59;-0.80;60.60
45785;DHT22;31489;51.404;5.474;2022-12-18T08:05:24;-0.80;60.70
45785;DHT22;31489;51.404;5.474;2022-12-18T08:07:50;-0.80;60.70
45785;DHT22;31489;51.404;5.474;2022-12-18T08:10:16;-0.70;60.80
45785;DHT22;31489;51.404;5.474;2022-12-18T08:12:41;-0.70;60.90
45785;DHT22;31489;51.404;5.474;2022-12-18T08:15:07;-0.70;60.90
45785;DHT22;31489;51.404;5.474;2022-12-18T08:17:33;-0.70;61.00
45785;DHT22;31489;51.404;5.474;2022-12-18T08:19:59;-0.70;61.00
45785;DHT22;31489;51.404;5.474;2022-12-18T08:22:25;-0.60;61.10
45785;DHT22;31489;51.404;5.474;2022-12-18T08:24:51;-0.60;61.10
45785;DHT22;31489;51.404;5.474;2022-12-18T08:27:17;-0.60;61.80
45785;DHT22;31489;51.404;5.474;2022-12-18T08:29:43;-0.60;61.30
45785;DHT22;31489;51.404;5.474;2022-12-18T08:32:08;-0.50;61.30
45785;DHT22;31489;51.404;5.474;2022-12-18T08:34:34;-0.50;61.30
45785;DHT22;31489;51.404;5.474;2022-12-18T08:37:00;-0.40;61.40
45785;DHT22;31489;51.404;5.474;2022-12-18T08:39:26;-0.40;61.40
45785;DHT22;31489;51.404;5.474;2022-12-18T08:41:51;-0.30;61.50
45785;DHT22;31489;51.404;5.474;2022-12-18T08:44:35;-0.30;61.50
45785;DHT22;31489;51.404;5.474;2022-12-18T08:47:05;-0.20;61.50
45785;DHT22;31489;51.404;5.474;2022-12-18T08:49:31;-0.20;61.60
45785;DHT22;31489;51.404;5.474;2022-12-18T08:51:57;-0.20;61.60
45785;DHT22;31489;51.404;5.474;2022-12-18T08:54:23;-0.10;61.60
45785;DHT22;31489;51.404;5.474;2022-12-18T08:56:49;-0.10;61.60
45785;DHT22;31489;51.404;5.474;2022-12-18T08:59:18;-0.10;61.70
45785;DHT22;31489;51.404;5.474;2022-12-18T09:01:44;0.00;61.90
45785;DHT22;31489;51.404;5.474;2022-12-18T09:04:10;0.00;61.90
45785;DHT22;31489;51.404;5.474;2022-12-18T09:06:36;0.10;61.90
45785;DHT22;31489;51.404;5.474;2022-12-18T09:09:04;0.20;61.90
45785;DHT22;31489;51.404;5.474;2022-12-18T09:11:30;0.20;62.00
45785;DHT22;31489;51.404;5.474;2022-12-18T09:13:57;0.20;61.90
45785;DHT22;31489;51.404;5.474;2022-12-18T09:16:24;0.30;61.90
45785;DHT22;31489;51.404;5.474;2022-12-18T09:18:50;0.30;61.90
45785;DHT22;31489;51.404;5.474;2022-12-18T09:21:18;0.30;61.90
45785;DHT22;31489;51.404;5.474;2022-12-18T09:23:48;0.40;62.10
45785;DHT22;31489;51.404;5.474;2022-12-18T09:26:14;0.40;62.10
45785;DHT22;31489;51.404;5.474;2022-12-18T09:28:40;0.40;62.10
45785;DHT22;31489;51.404;5.474;2022-12-18T09:31:07;0.50;62.20
45785;DHT22;31489;51.404;5.474;2022-12-18T09:33:34;0.50;62.40
45785;DHT22;31489;51.404;5.474;2022-12-18T09:36:02;0.60;62.50
45785;DHT22;31489;51.404;5.474;2022-12-18T09:38:28;0.60;62.50
45785;DHT22;31489;51.404;5.474;2022-12-18T09:40:57;0.60;62.60
45785;DHT22;31489;51.404;5.474;2022-12-18T09:43:30;0.70;62.70
45785;DHT22;31489;51.404;5.474;2022-12-18T09:46:03;0.80;62.80
45785;DHT22;31489;51.404;5.474;2022-12-18T09:48:41;0.90;62.80
45785;DHT22;31489;51.404;5.474;2022-12-18T09:51:19;1.00;63.00
45785;DHT22;31489;51.404;5.474;2022-12-18T09:54:24;1.10;63.00
45785;DHT22;31489;51.404;5.474;2022-12-18T09:56:50;1.20;63.00
45785;DHT22;31489;51.404;5.474;2022-12-18T09:59:32;1.30;62.90
45785;DHT22;31489;51.404;5.474;2022-12-18T10:01:58;1.50;63.10
45785;DHT22;31489;51.404;5.474;2022-12-18T10:04:24;1.60;63.10
45785;DHT22;31489;51.404;5.474;2022-12-18T10:06:56;1.70;62.80
45785;DHT22;31489;51.404;5.474;2022-12-18T10:10:06;1.80;62.80
45785;DHT22;31489;51.404;5.474;2022-12-18T10:12:35;1.90;62.60
45785;DHT22;31489;51.404;5.474;2022-12-18T10:17:40;2.20;62.30
45785;DHT22;31489;51.404;5.474;2022-12-18T10:22:57;2.40;61.90
45785;DHT22;31489;51.404;5.474;2022-12-18T10:25:40;2.50;61.90
45785;DHT22;31489;51.404;5.474;2022-12-18T10:28:13;2.50;61.70
45785;DHT22;31489;51.404;5.474;2022-12-18T10:30:40;2.60;61.60
45785;DHT22;31489;51.404;5.474;2022-12-18T10:33:11;2.60;61.60
45785;DHT22;31489;51.404;5.474;2022-12-18T10:35:41;2.60;61.60
45785;DHT22;31489;51.404;5.474;2022-12-18T10:38:20;2.60;61.60
45785;DHT22;31489;51.404;5.474;2022-12-18T10:43:19;2.60;61.60
45785;DHT22;31489;51.404;5.474;2022-12-18T10:51:21;2.70;61.70
45785;DHT22;31489;51.404;5.474;2022-12-18T10:53:52;2.70;61.60
45785;DHT22;31489;51.404;5.474;2022-12-18T10:56:20;2.70;61.70
45785;DHT22;31489;51.404;5.474;2022-12-18T10:59:04;2.70;61.60
45785;DHT22;31489;51.404;5.474;2022-12-18T11:01:55;2.70;61.60
45785;DHT22;31489;51.404;5.474;2022-12-18T11:04:23;2.70;61.70
45785;DHT22;31489;51.404;5.474;2022-12-18T11:07:00;2.70;61.70
45785;DHT22;31489;51.404;5.474;2022-12-18T11:09:34;2.70;61.70
45785;DHT22;31489;51.404;5.474;2022-12-18T11:14:49;2.70;61.90
45785;DHT22;31489;51.404;5.474;2022-12-18T11:19:58;2.70;61.90
45785;DHT22;31489;51.404;5.474;2022-12-18T11:22:27;2.70;61.90
45785;DHT22;31489;51.404;5.474;2022-12-18T11:24:59;2.70;62.10
45785;DHT22;31489;51.404;5.474;2022-12-18T11:27:25;2.70;62.20
45785;DHT22;31489;51.404;5.474;2022-12-18T11:29:51;2.80;62.30
45785;DHT22;31489;51.404;5.474;2022-12-18T11:32:24;2.80;62.40
45785;DHT22;31489;51.404;5.474;2022-12-18T11:34:55;2.80;62.40
45785;DHT22;31489;51.404;5.474;2022-12-18T11:37:23;2.80;62.30
45785;DHT22;31489;51.404;5.474;2022-12-18T11:40:01;2.80;62.50
45785;DHT22;31489;51.404;5.474;2022-12-18T11:42:38;2.80;62.40
45785;DHT22;31489;51.404;5.474;2022-12-18T11:50:26;2.90;62.40
45785;DHT22;31489;51.404;5.474;2022-12-18T11:52:53;2.90;62.40
45785;DHT22;31489;51.404;5.474;2022-12-18T11:55:46;3.00;62.50
45785;DHT22;31489;51.404;5.474;2022-12-18T11:58:38;3.00;62.40
45785;DHT22;31489;51.404;5.474;2022-12-18T12:01:16;3.00;62.30
45785;DHT22;31489;51.404;5.474;2022-12-18T12:14:50;3.30;62.20
45785;DHT22;31489;51.404;5.474;2022-12-18T12:17:42;3.30;62.10
45785;DHT22;31489;51.404;5.474;2022-12-18T12:20:13;3.30;62.20
45785;DHT22;31489;51.404;5.474;2022-12-18T12:23:05;3.40;62.30
45785;DHT22;31489;51.404;5.474;2022-12-18T12:25:52;3.40;62.10
45785;DHT22;31489;51.404;5.474;2022-12-18T12:28:57;3.50;62.00
45785;DHT22;31489;51.404;5.474;2022-12-18T12:34:06;3.50;62.10
45785;DHT22;31489;51.404;5.474;2022-12-18T12:39:12;3.60;61.90
45785;DHT22;31489;51.404;5.474;2022-12-18T12:41:39;3.60;62.00
45785;DHT22;31489;51.404;5.474;2022-12-18T12:44:29;3.60;61.90
45785;DHT22;31489;51.404;5.474;2022-12-18T12:46:59;3.70;61.80
45785;DHT22;31489;51.404;5.474;2022-12-18T12:49:27;3.70;61.70
45785;DHT22;31489;51.404;5.474;2022-12-18T12:52:05;3.70;61.50
45785;DHT22;31489;51.404;5.474;2022-12-18T12:54:33;3.70;61.70
45785;DHT22;31489;51.404;5.474;2022-12-18T12:57:01;3.80;61.50
45785;DHT22;31489;51.404;5.474;2022-12-18T12:59:32;3.80;61.40
45785;DHT22;31489;51.404;5.474;2022-12-18T13:02:20;3.80;61.20
45785;DHT22;31489;51.404;5.474;2022-12-18T13:07:39;3.80;60.90
45785;DHT22;31489;51.404;5.474;2022-12-18T13:10:34;3.90;61.60
45785;DHT22;31489;51.404;5.474;2022-12-18T13:20:44;3.90;60.90
45785;DHT22;31489;51.404;5.474;2022-12-18T13:23:29;3.90;61.00
45785;DHT22;31489;51.404;5.474;2022-12-18T13:25:56;3.90;60.80
45785;DHT22;31489;51.404;5.474;2022-12-18T13:36:42;4.00;60.60
45785;DHT22;31489;51.404;5.474;2022-12-18T13:39:23;3.90;60.60
45785;DHT22;31489;51.404;5.474;2022-12-18T13:44:38;4.00;60.60
45785;DHT22;31489;51.404;5.474;2022-12-18T13:47:42;4.00;60.60
45785;DHT22;31489;51.404;5.474;2022-12-18T13:50:26;4.00;60.60
45785;DHT22;31489;51.404;5.474;2022-12-18T13:52:54;4.10;60.60
45785;DHT22;31489;51.404;5.474;2022-12-18T13:55:22;4.10;60.60
45785;DHT22;31489;51.404;5.474;2022-12-18T13:57:48;4.10;60.60
45785;DHT22;31489;51.404;5.474;2022-12-18T14:00:28;4.10;60.60
45785;DHT22;31489;51.404;5.474;2022-12-18T14:02:56;4.10;60.50
45785;DHT22;31489;51.404;5.474;2022-12-18T14:05:30;4.10;60.50
45785;DHT22;31489;51.404;5.474;2022-12-18T14:08:03;4.20;60.30
45785;DHT22;31489;51.404;5.474;2022-12-18T14:10:30;4.20;60.20
45785;DHT22;31489;51.404;5.474;2022-12-18T14:12:57;4.20;60.30
45785;DHT22;31489;51.404;5.474;2022-12-18T14:21:02;4.30;60.10
45785;DHT22;31489;51.404;5.474;2022-12-18T14:23:34;4.30;60.10
45785;DHT22;31489;51.404;5.474;2022-12-18T14:28:47;4.30;60.00
45785;DHT22;31489;51.404;5.474;2022-12-18T14:31:25;4.30;60.00
45785;DHT22;31489;51.404;5.474;2022-12-18T14:33:52;4.30;59.80
45785;DHT22;31489;51.404;5.474;2022-12-18T14:36:23;4.40;59.90
45785;DHT22;31489;51.404;5.474;2022-12-18T14:38:59;4.40;59.90
45785;DHT22;31489;51.404;5.474;2022-12-18T14:41:25;4.40;60.20
45785;DHT22;31489;51.404;5.474;2022-12-18T14:43:53;4.40;59.80
45785;DHT22;31489;51.404;5.474;2022-12-18T14:46:49;4.40;59.70
45785;DHT22;31489;51.404;5.474;2022-12-18T14:52:05;4.40;59.50
45785;DHT22;31489;51.404;5.474;2022-12-18T14:54:32;4.40;59.30
45785;DHT22;31489;51.404;5.474;2022-12-18T14:57:25;4.40;59.30
45785;DHT22;31489;51.404;5.474;2022-12-18T15:00:06;4.40;59.20
45785;DHT22;31489;51.404;5.474;2022-12-18T15:02:35;4.40;59.20
45785;DHT22;31489;51.404;5.474;2022-12-18T15:05:19;4.40;59.20
45785;DHT22;31489;51.404;5.474;2022-12-18T15:07:53;4.40;59.10
45785;DHT22;31489;51.404;5.474;2022-12-18T15:10:30;4.40;59.10
45785;DHT22;31489;51.404;5.474;2022-12-18T15:18:15;4.40;59.00
45785;DHT22;31489;51.404;5.474;2022-12-18T15:26:11;4.40;58.90
45785;DHT22;31489;51.404;5.474;2022-12-18T15:28:51;4.40;59.20
45785;DHT22;31489;51.404;5.474;2022-12-18T15:36:20;4.40;59.10
45785;DHT22;31489;51.404;5.474;2022-12-18T15:38:49;4.40;59.00
45785;DHT22;31489;51.404;5.474;2022-12-18T15:41:17;4.50;58.80
45785;DHT22;31489;51.404;5.474;2022-12-18T15:43:43;4.40;59.00
45785;DHT22;31489;51.404;5.474;2022-12-18T15:48:47;4.40;59.50
45785;DHT22;31489;51.404;5.474;2022-12-18T15:51:14;4.40;59.00
45785;DHT22;31489;51.404;5.474;2022-12-18T15:53:40;4.40;59.00
45785;DHT22;31489;51.404;5.474;2022-12-18T15:56:10;4.50;59.00
45785;DHT22;31489;51.404;5.474;2022-12-18T15:58:55;4.50;58.90
45785;DHT22;31489;51.404;5.474;2022-12-18T16:01:23;4.40;58.90
45785;DHT22;31489;51.404;5.474;2022-12-18T16:03:49;4.40;58.80
45785;DHT22;31489;51.404;5.474;2022-12-18T16:06:14;4.50;58.90
45785;DHT22;31489;51.404;5.474;2022-12-18T16:08:40;4.40;58.70
45785;DHT22;31489;51.404;5.474;2022-12-18T16:11:15;4.40;58.80
45785;DHT22;31489;51.404;5.474;2022-12-18T16:13:45;4.40;58.80
45785;DHT22;31489;51.404;5.474;2022-12-18T16:16:10;4.40;58.80
45785;DHT22;31489;51.404;5.474;2022-12-18T16:18:36;4.40;58.80
45785;DHT22;31489;51.404;5.474;2022-12-18T16:21:01;4.40;58.90
45785;DHT22;31489;51.404;5.474;2022-12-18T16:23:27;4.40;59.00
45785;DHT22;31489;51.404;5.474;2022-12-18T16:25:53;4.40;58.90
45785;DHT22;31489;51.404;5.474;2022-12-18T16:28:18;4.40;58.80
45785;DHT22;31489;51.404;5.474;2022-12-18T16:30:44;4.40;58.80
45785;DHT22;31489;51.404;5.474;2022-12-18T16:33:10;4.40;58.90
45785;DHT22;31489;51.404;5.474;2022-12-18T16:35:36;4.30;58.90
45785;DHT22;31489;51.404;5.474;2022-12-18T16:38:02;4.30;58.90
45785;DHT22;31489;51.404;5.474;2022-12-18T16:40:31;4.30;58.90
45785;DHT22;31489;51.404;5.474;2022-12-18T16:42:57;4.30;58.90
45785;DHT22;31489;51.404;5.474;2022-12-18T16:45:22;4.40;59.00
45785;DHT22;31489;51.404;5.474;2022-12-18T16:47:48;4.40;58.90
45785;DHT22;31489;51.404;5.474;2022-12-18T16:50:14;4.40;59.00
45785;DHT22;31489;51.404;5.474;2022-12-18T16:52:40;4.40;59.00
45785;DHT22;31489;51.404;5.474;2022-12-18T16:55:06;4.40;58.90
45785;DHT22;31489;51.404;5.474;2022-12-18T16:57:32;4.40;58.90
45785;DHT22;31489;51.404;5.474;2022-12-18T16:59:58;4.40;58.90
45785;DHT22;31489;51.404;5.474;2022-12-18T17:02:25;4.40;58.80
45785;DHT22;31489;51.404;5.474;2022-12-18T17:04:58;4.40;58.90
45785;DHT22;31489;51.404;5.474;2022-12-18T17:07:24;4.40;58.80
45785;DHT22;31489;51.404;5.474;2022-12-18T17:09:50;4.40;58.80
45785;DHT22;31489;51.404;5.474;2022-12-18T17:12:18;4.40;58.80
45785;DHT22;31489;51.404;5.474;2022-12-18T17:14:44;4.40;58.80
45785;DHT22;31489;51.404;5.474;2022-12-18T17:17:09;4.40;58.90
45785;DHT22;31489;51.404;5.474;2022-12-18T17:19:35;4.30;58.90
45785;DHT22;31489;51.404;5.474;2022-12-18T17:22:01;4.30;58.90
45785;DHT22;31489;51.404;5.474;2022-12-18T17:24:26;4.30;58.90
45785;DHT22;31489;51.404;5.474;2022-12-18T17:26:52;4.40;59.00
45785;DHT22;31489;51.404;5.474;2022-12-18T17:29:19;4.30;59.00
45785;DHT22;31489;51.404;5.474;2022-12-18T17:31:46;4.30;59.00
45785;DHT22;31489;51.404;5.474;2022-12-18T17:34:12;4.30;59.00
45785;DHT22;31489;51.404;5.474;2022-12-18T17:36:38;4.40;59.20
45785;DHT22;31489;51.404;5.474;2022-12-18T17:39:05;4.40;59.10
45785;DHT22;31489;51.404;5.474;2022-12-18T17:41:31;4.40;59.20
45785;DHT22;31489;51.404;5.474;2022-12-18T17:44:00;4.40;59.20
45785;DHT22;31489;51.404;5.474;2022-12-18T17:46:27;4.40;59.20
45785;DHT22;31489;51.404;5.474;2022-12-18T17:48:55;4.40;59.20
45785;DHT22;31489;51.404;5.474;2022-12-18T17:51:21;4.50;59.20